sensor_id;sensor_type;location;lat;lon;timestamp;P1;durP1;ratioP1;P2;durP2;ratioP2
33672;SDS011;20011;51.510;9.942;2024-01-27T00:01:28;17.38;;;3.42;;
33672;SDS011;20011;51.510;9.942;2024-01-27T00:03:55;16.77;;;2.90;;
33672;SDS011;20011;51.510;9.942;2024-01-27T00:06:21;13.00;;;2.95;;
33672;SDS011;20011;51.510;9.942;2024-01-27T00:08:49;15.90;;;2.90;;
33672;SDS011;20011;51.510;9.942;2024-01-27T00:11:15;17.00;;;3.38;;
33672;SDS011;20011;51.510;9.942;2024-01-27T00:13:43;16.83;;;3.38;;
33672;SDS011;20011;51.510;9.942;2024-01-27T00:16:10;18.35;;;3.85;;
33672;SDS011;20011;51.510;9.942;2024-01-27T00:18:37;15.57;;;2.93;;
33672;SDS011;20011;51.510;9.942;2024-01-27T00:21:05;16.38;;;2.85;;
33672;SDS011;20011;51.510;9.942;2024-01-27T00:23:33;17.90;;;3.60;;
33672;SDS011;20011;51.510;9.942;2024-01-27T00:26:01;14.52;;;2.97;;
33672;SDS011;20011;51.510;9.942;2024-01-27T00:28:28;15.07;;;3.45;;
33672;SDS011;20011;51.510;9.942;2024-01-27T00:30:55;16.92;;;3.33;;
33672;SDS011;20011;51.510;9.942;2024-01-27T00:33:22;19.52;;;3.47;;
33672;SDS011;20011;51.510;9.942;2024-01-27T00:35:49;24.75;;;4.03;;
33672;SDS011;20011;51.510;9.942;2024-01-27T00:38:16;16.67;;;3.05;;
33672;SDS011;20011;51.510;9.942;2024-01-27T00:40:43;18.33;;;3.08;;
33672;SDS011;20011;51.510;9.942;2024-01-27T00:43:10;19.45;;;3.67;;
33672;SDS011;20011;51.510;9.942;2024-01-27T00:45:37;19.95;;;3.15;;
33672;SDS011;20011;51.510;9.942;2024-01-27T00:48:04;19.33;;;4.00;;
33672;SDS011;20011;51.510;9.942;2024-01-27T00:50:31;15.23;;;3.00;;
33672;SDS011;20011;51.510;9.942;2024-01-27T00:52:58;19.47;;;3.70;;
33672;SDS011;20011;51.510;9.942;2024-01-27T00:55:25;19.77;;;3.90;;
33672;SDS011;20011;51.510;9.942;2024-01-27T00:57:52;17.42;;;3.28;;
33672;SDS011;20011;51.510;9.942;2024-01-27T01:00:20;18.15;;;3.58;;
33672;SDS011;20011;51.510;9.942;2024-01-27T01:02:48;21.83;;;3.95;;
33672;SDS011;20011;51.510;9.942;2024-01-27T01:05:15;17.48;;;3.05;;
33672;SDS011;20011;51.510;9.942;2024-01-27T01:07:42;22.10;;;4.18;;
33672;SDS011;20011;51.510;9.942;2024-01-27T01:10:09;18.80;;;4.05;;
33672;SDS011;20011;51.510;9.942;2024-01-27T01:12:36;15.75;;;3.35;;
33672;SDS011;20011;51.510;9.942;2024-01-27T01:15:03;14.43;;;3.22;;
33672;SDS011;20011;51.510;9.942;2024-01-27T01:17:30;15.73;;;3.88;;
33672;SDS011;20011;51.510;9.942;2024-01-27T01:19:57;18.02;;;3.05;;
33672;SDS011;20011;51.510;9.942;2024-01-27T01:22:24;16.20;;;3.13;;
33672;SDS011;20011;51.510;9.942;2024-01-27T01:24:52;21.67;;;3.23;;
33672;SDS011;20011;51.510;9.942;2024-01-27T01:27:18;18.23;;;4.33;;
33672;SDS011;20011;51.510;9.942;2024-01-27T01:29:47;15.05;;;3.38;;
33672;SDS011;20011;51.510;9.942;2024-01-27T01:32:14;19.00;;;4.20;;
33672;SDS011;20011;51.510;9.942;2024-01-27T01:34:42;20.67;;;3.42;;
33672;SDS011;20011;51.510;9.942;2024-01-27T01:37:09;18.83;;;3.60;;
33672;SDS011;20011;51.510;9.942;2024-01-27T01:39:35;17.02;;;3.25;;
33672;SDS011;20011;51.510;9.942;2024-01-27T01:42:03;18.73;;;2.80;;
33672;SDS011;20011;51.510;9.942;2024-01-27T01:44:30;14.93;;;3.22;;
33672;SDS011;20011;51.510;9.942;2024-01-27T01:47:00;18.73;;;3.73;;
33672;SDS011;20011;51.510;9.942;2024-01-27T01:49:28;18.85;;;3.53;;
33672;SDS011;20011;51.510;9.942;2024-01-27T01:51:55;14.75;;;3.00;;
33672;SDS011;20011;51.510;9.942;2024-01-27T01:54:23;20.55;;;4.35;;
33672;SDS011;20011;51.510;9.942;2024-01-27T01:56:58;17.48;;;3.80;;
33672;SDS011;20011;51.510;9.942;2024-01-27T01:59:25;15.70;;;3.65;;
33672;SDS011;20011;51.510;9.942;2024-01-27T02:01:52;16.83;;;3.40;;
33672;SDS011;20011;51.510;9.942;2024-01-27T02:04:19;18.63;;;3.55;;
33672;SDS011;20011;51.510;9.942;2024-01-27T02:06:46;14.23;;;3.33;;
33672;SDS011;20011;51.510;9.942;2024-01-27T02:09:13;15.20;;;3.33;;
33672;SDS011;20011;51.510;9.942;2024-01-27T02:11:40;18.38;;;3.65;;
33672;SDS011;20011;51.510;9.942;2024-01-27T02:14:07;18.42;;;3.75;;
33672;SDS011;20011;51.510;9.942;2024-01-27T02:16:35;16.77;;;3.05;;
33672;SDS011;20011;51.510;9.942;2024-01-27T02:19:02;16.60;;;3.38;;
33672;SDS011;20011;51.510;9.942;2024-01-27T02:21:29;14.48;;;3.40;;
33672;SDS011;20011;51.510;9.942;2024-01-27T02:23:56;15.27;;;3.28;;
33672;SDS011;20011;51.510;9.942;2024-01-27T02:26:23;17.80;;;3.53;;
33672;SDS011;20011;51.510;9.942;2024-01-27T02:28:50;17.17;;;3.13;;
33672;SDS011;20011;51.510;9.942;2024-01-27T02:31:17;21.90;;;3.67;;
33672;SDS011;20011;51.510;9.942;2024-01-27T02:33:44;17.83;;;3.72;;
33672;SDS011;20011;51.510;9.942;2024-01-27T02:36:11;20.00;;;3.30;;
33672;SDS011;20011;51.510;9.942;2024-01-27T02:38:38;21.23;;;3.67;;
33672;SDS011;20011;51.510;9.942;2024-01-27T02:41:06;16.83;;;3.40;;
33672;SDS011;20011;51.510;9.942;2024-01-27T02:43:33;15.48;;;3.17;;
33672;SDS011;20011;51.510;9.942;2024-01-27T02:50:13;16.17;;;3.65;;
33672;SDS011;20011;51.510;9.942;2024-01-27T02:52:40;20.67;;;4.22;;
33672;SDS011;20011;51.510;9.942;2024-01-27T02:55:07;16.98;;;4.20;;
33672;SDS011;20011;51.510;9.942;2024-01-27T02:57:34;22.43;;;3.50;;
33672;SDS011;20011;51.510;9.942;2024-01-27T03:00:01;16.70;;;3.72;;
33672;SDS011;20011;51.510;9.942;2024-01-27T03:06:34;22.23;;;3.90;;
33672;SDS011;20011;51.510;9.942;2024-01-27T03:09:01;19.73;;;4.40;;
33672;SDS011;20011;51.510;9.942;2024-01-27T03:11:28;19.60;;;3.63;;
33672;SDS011;20011;51.510;9.942;2024-01-27T03:14:03;18.90;;;3.72;;
33672;SDS011;20011;51.510;9.942;2024-01-27T03:19:30;17.10;;;3.58;;
33672;SDS011;20011;51.510;9.942;2024-01-27T03:22:38;14.73;;;4.00;;
33672;SDS011;20011;51.510;9.942;2024-01-27T03:28:24;22.27;;;4.47;;
33672;SDS011;20011;51.510;9.942;2024-01-27T03:30:50;18.52;;;4.15;;
33672;SDS011;20011;51.510;9.942;2024-01-27T03:36:21;21.17;;;4.28;;
33672;SDS011;20011;51.510;9.942;2024-01-27T03:42:54;16.08;;;4.30;;
33672;SDS011;20011;51.510;9.942;2024-01-27T03:45:21;19.90;;;3.95;;
33672;SDS011;20011;51.510;9.942;2024-01-27T03:47:48;14.85;;;3.85;;
33672;SDS011;20011;51.510;9.942;2024-01-27T03:50:17;20.23;;;4.57;;
33672;SDS011;20011;51.510;9.942;2024-01-27T03:52:44;23.63;;;5.13;;
33672;SDS011;20011;51.510;9.942;2024-01-27T03:55:11;16.08;;;4.18;;
33672;SDS011;20011;51.510;9.942;2024-01-27T03:57:38;19.80;;;4.77;;
33672;SDS011;20011;51.510;9.942;2024-01-27T04:00:23;21.70;;;4.15;;
33672;SDS011;20011;51.510;9.942;2024-01-27T04:07:05;22.17;;;3.95;;
33672;SDS011;20011;51.510;9.942;2024-01-27T04:09:32;18.73;;;4.55;;
33672;SDS011;20011;51.510;9.942;2024-01-27T04:12:00;21.17;;;4.65;;
33672;SDS011;20011;51.510;9.942;2024-01-27T04:34:21;20.00;;;4.70;;
33672;SDS011;20011;51.510;9.942;2024-01-27T04:36:48;19.83;;;4.47;;
33672;SDS011;20011;51.510;9.942;2024-01-27T04:39:15;16.83;;;4.45;;
33672;SDS011;20011;51.510;9.942;2024-01-27T04:41:42;15.32;;;4.03;;
33672;SDS011;20011;51.510;9.942;2024-01-27T04:44:10;20.67;;;5.10;;
33672;SDS011;20011;51.510;9.942;2024-01-27T04:46:37;21.25;;;4.45;;
33672;SDS011;20011;51.510;9.942;2024-01-27T04:49:04;21.83;;;4.25;;
33672;SDS011;20011;51.510;9.942;2024-01-27T04:51:31;20.08;;;5.63;;
33672;SDS011;20011;51.510;9.942;2024-01-27T04:53:58;22.77;;;4.45;;
33672;SDS011;20011;51.510;9.942;2024-01-27T04:56:25;18.35;;;4.80;;
33672;SDS011;20011;51.510;9.942;2024-01-27T04:58:52;28.20;;;4.80;;
33672;SDS011;20011;51.510;9.942;2024-01-27T05:01:19;20.52;;;4.95;;
33672;SDS011;20011;51.510;9.942;2024-01-27T05:03:47;19.25;;;4.32;;
33672;SDS011;20011;51.510;9.942;2024-01-27T05:06:14;18.60;;;4.60;;
33672;SDS011;20011;51.510;9.942;2024-01-27T05:08:41;17.38;;;4.40;;
33672;SDS011;20011;51.510;9.942;2024-01-27T05:11:09;20.25;;;4.68;;
33672;SDS011;20011;51.510;9.942;2024-01-27T05:13:36;19.17;;;4.50;;
33672;SDS011;20011;51.510;9.942;2024-01-27T05:16:06;24.85;;;5.63;;
33672;SDS011;20011;51.510;9.942;2024-01-27T05:18:33;18.30;;;4.70;;
33672;SDS011;20011;51.510;9.942;2024-01-27T05:21:00;19.80;;;5.10;;
33672;SDS011;20011;51.510;9.942;2024-01-27T05:23:27;26.45;;;5.53;;
33672;SDS011;20011;51.510;9.942;2024-01-27T05:25:54;24.87;;;5.53;;
33672;SDS011;20011;51.510;9.942;2024-01-27T05:28:21;20.27;;;5.38;;
33672;SDS011;20011;51.510;9.942;2024-01-27T05:30:47;18.13;;;5.45;;
33672;SDS011;20011;51.510;9.942;2024-01-27T05:33:14;22.02;;;5.43;;
33672;SDS011;20011;51.510;9.942;2024-01-27T05:35:43;24.08;;;6.00;;
33672;SDS011;20011;51.510;9.942;2024-01-27T05:38:10;19.90;;;5.28;;
33672;SDS011;20011;51.510;9.942;2024-01-27T05:40:37;20.33;;;5.28;;
33672;SDS011;20011;51.510;9.942;2024-01-27T05:43:07;20.60;;;5.50;;
33672;SDS011;20011;51.510;9.942;2024-01-27T05:45:34;20.30;;;5.60;;
33672;SDS011;20011;51.510;9.942;2024-01-27T05:48:01;26.20;;;5.88;;
33672;SDS011;20011;51.510;9.942;2024-01-27T05:50:28;17.75;;;5.78;;
33672;SDS011;20011;51.510;9.942;2024-01-27T05:52:57;20.75;;;5.90;;
33672;SDS011;20011;51.510;9.942;2024-01-27T05:55:24;24.10;;;5.55;;
33672;SDS011;20011;51.510;9.942;2024-01-27T05:57:51;24.90;;;5.63;;
33672;SDS011;20011;51.510;9.942;2024-01-27T06:00:17;22.80;;;5.53;;
33672;SDS011;20011;51.510;9.942;2024-01-27T06:02:45;17.65;;;4.40;;
33672;SDS011;20011;51.510;9.942;2024-01-27T06:05:12;15.32;;;4.90;;
33672;SDS011;20011;51.510;9.942;2024-01-27T06:07:39;21.45;;;5.43;;
33672;SDS011;20011;51.510;9.942;2024-01-27T06:10:07;17.30;;;5.65;;
33672;SDS011;20011;51.510;9.942;2024-01-27T06:12:36;23.13;;;5.47;;
33672;SDS011;20011;51.510;9.942;2024-01-27T06:15:04;18.77;;;4.80;;
33672;SDS011;20011;51.510;9.942;2024-01-27T06:17:32;21.13;;;5.43;;
33672;SDS011;20011;51.510;9.942;2024-01-27T06:19:59;20.90;;;5.35;;
33672;SDS011;20011;51.510;9.942;2024-01-27T06:22:26;20.43;;;5.13;;
33672;SDS011;20011;51.510;9.942;2024-01-27T06:24:53;20.30;;;4.80;;
33672;SDS011;20011;51.510;9.942;2024-01-27T06:27:20;19.40;;;4.57;;
33672;SDS011;20011;51.510;9.942;2024-01-27T06:29:47;25.93;;;5.53;;
33672;SDS011;20011;51.510;9.942;2024-01-27T06:32:14;15.80;;;4.10;;
33672;SDS011;20011;51.510;9.942;2024-01-27T06:34:41;17.57;;;4.47;;
33672;SDS011;20011;51.510;9.942;2024-01-27T06:37:08;18.77;;;5.25;;
33672;SDS011;20011;51.510;9.942;2024-01-27T06:39:35;26.40;;;5.10;;
33672;SDS011;20011;51.510;9.942;2024-01-27T06:42:02;21.05;;;4.85;;
33672;SDS011;20011;51.510;9.942;2024-01-27T06:44:29;22.98;;;5.25;;
33672;SDS011;20011;51.510;9.942;2024-01-27T06:46:56;20.77;;;4.95;;
33672;SDS011;20011;51.510;9.942;2024-01-27T06:49:23;20.73;;;4.60;;
33672;SDS011;20011;51.510;9.942;2024-01-27T06:51:50;17.05;;;4.35;;
33672;SDS011;20011;51.510;9.942;2024-01-27T06:54:17;18.60;;;4.57;;
33672;SDS011;20011;51.510;9.942;2024-01-27T06:56:44;22.42;;;4.43;;
33672;SDS011;20011;51.510;9.942;2024-01-27T06:59:11;23.52;;;4.68;;
33672;SDS011;20011;51.510;9.942;2024-01-27T07:01:38;21.97;;;5.13;;
33672;SDS011;20011;51.510;9.942;2024-01-27T07:04:06;19.48;;;4.45;;
33672;SDS011;20011;51.510;9.942;2024-01-27T07:06:33;24.20;;;5.00;;
33672;SDS011;20011;51.510;9.942;2024-01-27T07:09:00;26.45;;;5.32;;
33672;SDS011;20011;51.510;9.942;2024-01-27T07:11:28;15.23;;;4.28;;
33672;SDS011;20011;51.510;9.942;2024-01-27T07:13:55;21.13;;;4.30;;
33672;SDS011;20011;51.510;9.942;2024-01-27T07:16:22;20.60;;;4.88;;
33672;SDS011;20011;51.510;9.942;2024-01-27T07:18:49;16.08;;;4.25;;
33672;SDS011;20011;51.510;9.942;2024-01-27T07:21:16;18.63;;;4.40;;
33672;SDS011;20011;51.510;9.942;2024-01-27T07:23:43;24.27;;;5.00;;
33672;SDS011;20011;51.510;9.942;2024-01-27T07:26:11;17.13;;;4.00;;
33672;SDS011;20011;51.510;9.942;2024-01-27T07:28:38;15.10;;;3.88;;
33672;SDS011;20011;51.510;9.942;2024-01-27T07:31:05;17.03;;;4.23;;
33672;SDS011;20011;51.510;9.942;2024-01-27T07:33:33;19.48;;;4.47;;
33672;SDS011;20011;51.510;9.942;2024-01-27T07:36:00;17.17;;;4.22;;
33672;SDS011;20011;51.510;9.942;2024-01-27T07:38:28;20.60;;;4.97;;
33672;SDS011;20011;51.510;9.942;2024-01-27T07:40:55;17.42;;;4.35;;
33672;SDS011;20011;51.510;9.942;2024-01-27T07:43:23;20.42;;;4.55;;
33672;SDS011;20011;51.510;9.942;2024-01-27T07:45:51;18.00;;;3.90;;
33672;SDS011;20011;51.510;9.942;2024-01-27T07:48:19;19.67;;;4.60;;
33672;SDS011;20011;51.510;9.942;2024-01-27T07:50:47;16.70;;;4.45;;
33672;SDS011;20011;51.510;9.942;2024-01-27T07:53:16;17.10;;;4.45;;
33672;SDS011;20011;51.510;9.942;2024-01-27T07:55:43;15.15;;;3.67;;
33672;SDS011;20011;51.510;9.942;2024-01-27T07:58:10;17.95;;;4.43;;
33672;SDS011;20011;51.510;9.942;2024-01-27T08:00:37;22.00;;;6.20;;
33672;SDS011;20011;51.510;9.942;2024-01-27T08:03:04;20.50;;;4.33;;
33672;SDS011;20011;51.510;9.942;2024-01-27T08:05:31;21.83;;;5.22;;
33672;SDS011;20011;51.510;9.942;2024-01-27T08:07:58;17.33;;;4.18;;
33672;SDS011;20011;51.510;9.942;2024-01-27T08:10:25;19.20;;;4.57;;
33672;SDS011;20011;51.510;9.942;2024-01-27T08:12:52;16.88;;;4.85;;
33672;SDS011;20011;51.510;9.942;2024-01-27T08:15:19;18.50;;;4.68;;
33672;SDS011;20011;51.510;9.942;2024-01-27T08:17:46;16.70;;;3.95;;
33672;SDS011;20011;51.510;9.942;2024-01-27T08:20:13;13.80;;;4.20;;
33672;SDS011;20011;51.510;9.942;2024-01-27T08:22:41;18.63;;;4.00;;
33672;SDS011;20011;51.510;9.942;2024-01-27T08:25:08;19.20;;;4.87;;
33672;SDS011;20011;51.510;9.942;2024-01-27T08:27:35;19.40;;;4.43;;
33672;SDS011;20011;51.510;9.942;2024-01-27T08:30:02;19.40;;;4.35;;
33672;SDS011;20011;51.510;9.942;2024-01-27T08:32:30;18.17;;;4.57;;
33672;SDS011;20011;51.510;9.942;2024-01-27T08:34:57;20.42;;;4.45;;
33672;SDS011;20011;51.510;9.942;2024-01-27T08:37:24;18.23;;;4.57;;
33672;SDS011;20011;51.510;9.942;2024-01-27T08:39:51;20.27;;;4.32;;
33672;SDS011;20011;51.510;9.942;2024-01-27T08:42:18;17.77;;;3.83;;
33672;SDS011;20011;51.510;9.942;2024-01-27T08:44:45;22.90;;;4.78;;
33672;SDS011;20011;51.510;9.942;2024-01-27T08:47:12;16.67;;;4.32;;
33672;SDS011;20011;51.510;9.942;2024-01-27T08:49:39;19.05;;;4.68;;
33672;SDS011;20011;51.510;9.942;2024-01-27T08:52:06;24.95;;;4.63;;
33672;SDS011;20011;51.510;9.942;2024-01-27T08:54:33;23.63;;;5.05;;
33672;SDS011;20011;51.510;9.942;2024-01-27T08:57:00;16.92;;;4.13;;
33672;SDS011;20011;51.510;9.942;2024-01-27T08:59:28;22.63;;;4.45;;
33672;SDS011;20011;51.510;9.942;2024-01-27T09:01:55;18.00;;;4.50;;
33672;SDS011;20011;51.510;9.942;2024-01-27T09:04:22;14.48;;;4.15;;
33672;SDS011;20011;51.510;9.942;2024-01-27T09:06:49;21.90;;;4.70;;
33672;SDS011;20011;51.510;9.942;2024-01-27T09:09:16;22.95;;;4.68;;
33672;SDS011;20011;51.510;9.942;2024-01-27T09:11:43;18.15;;;4.28;;
33672;SDS011;20011;51.510;9.942;2024-01-27T09:14:11;23.40;;;4.22;;
33672;SDS011;20011;51.510;9.942;2024-01-27T09:16:38;23.17;;;4.40;;
33672;SDS011;20011;51.510;9.942;2024-01-27T09:19:06;22.60;;;5.28;;
33672;SDS011;20011;51.510;9.942;2024-01-27T09:21:34;21.40;;;4.68;;
33672;SDS011;20011;51.510;9.942;2024-01-27T09:24:03;16.55;;;4.40;;
33672;SDS011;20011;51.510;9.942;2024-01-27T09:26:30;23.30;;;4.25;;
33672;SDS011;20011;51.510;9.942;2024-01-27T09:28:57;16.80;;;3.50;;
33672;SDS011;20011;51.510;9.942;2024-01-27T09:31:24;21.88;;;5.10;;
33672;SDS011;20011;51.510;9.942;2024-01-27T09:33:52;15.85;;;3.30;;
33672;SDS011;20011;51.510;9.942;2024-01-27T09:36:20;22.00;;;4.38;;
33672;SDS011;20011;51.510;9.942;2024-01-27T09:38:48;20.08;;;4.35;;
33672;SDS011;20011;51.510;9.942;2024-01-27T09:41:15;19.63;;;4.28;;
33672;SDS011;20011;51.510;9.942;2024-01-27T09:43:43;23.30;;;4.15;;
33672;SDS011;20011;51.510;9.942;2024-01-27T09:46:11;17.27;;;4.03;;
33672;SDS011;20011;51.510;9.942;2024-01-27T09:48:39;19.58;;;4.13;;
33672;SDS011;20011;51.510;9.942;2024-01-27T09:51:07;19.30;;;3.85;;
33672;SDS011;20011;51.510;9.942;2024-01-27T09:53:35;17.92;;;3.70;;
33672;SDS011;20011;51.510;9.942;2024-01-27T09:56:03;15.85;;;3.28;;
33672;SDS011;20011;51.510;9.942;2024-01-27T09:58:30;17.02;;;3.67;;
33672;SDS011;20011;51.510;9.942;2024-01-27T10:01:00;21.77;;;4.90;;
33672;SDS011;20011;51.510;9.942;2024-01-27T10:03:28;17.60;;;3.75;;
33672;SDS011;20011;51.510;9.942;2024-01-27T10:05:56;22.50;;;4.55;;
33672;SDS011;20011;51.510;9.942;2024-01-27T10:08:24;21.67;;;4.20;;
33672;SDS011;20011;51.510;9.942;2024-01-27T10:10:53;15.77;;;3.95;;
33672;SDS011;20011;51.510;9.942;2024-01-27T10:13:22;15.82;;;4.10;;
33672;SDS011;20011;51.510;9.942;2024-01-27T10:18:33;20.60;;;4.50;;
33672;SDS011;20011;51.510;9.942;2024-01-27T10:21:11;18.42;;;4.03;;
33672;SDS011;20011;51.510;9.942;2024-01-27T10:23:49;18.33;;;4.32;;
33672;SDS011;20011;51.510;9.942;2024-01-27T10:26:16;15.88;;;4.13;;
33672;SDS011;20011;51.510;9.942;2024-01-27T10:28:51;18.73;;;4.13;;
33672;SDS011;20011;51.510;9.942;2024-01-27T10:31:28;16.35;;;3.65;;
33672;SDS011;20011;51.510;9.942;2024-01-27T10:33:57;17.20;;;3.60;;
33672;SDS011;20011;51.510;9.942;2024-01-27T10:36:24;17.02;;;4.05;;
33672;SDS011;20011;51.510;9.942;2024-01-27T10:38:55;18.20;;;4.18;;
33672;SDS011;20011;51.510;9.942;2024-01-27T10:41:23;22.40;;;3.92;;
33672;SDS011;20011;51.510;9.942;2024-01-27T10:43:53;16.90;;;3.35;;
33672;SDS011;20011;51.510;9.942;2024-01-27T10:46:21;18.75;;;3.50;;
33672;SDS011;20011;51.510;9.942;2024-01-27T10:48:51;12.95;;;3.45;;
33672;SDS011;20011;51.510;9.942;2024-01-27T10:51:28;14.50;;;3.35;;
33672;SDS011;20011;51.510;9.942;2024-01-27T10:54:01;20.15;;;3.90;;
33672;SDS011;20011;51.510;9.942;2024-01-27T10:56:31;19.52;;;3.97;;
33672;SDS011;20011;51.510;9.942;2024-01-27T10:58:59;14.60;;;3.47;;
33672;SDS011;20011;51.510;9.942;2024-01-27T11:01:28;14.30;;;3.35;;
33672;SDS011;20011;51.510;9.942;2024-01-27T11:03:58;18.33;;;4.22;;
33672;SDS011;20011;51.510;9.942;2024-01-27T11:06:26;17.67;;;3.85;;
33672;SDS011;20011;51.510;9.942;2024-01-27T11:08:56;17.85;;;4.15;;
33672;SDS011;20011;51.510;9.942;2024-01-27T11:11:24;14.25;;;3.33;;
33672;SDS011;20011;51.510;9.942;2024-01-27T11:13:51;15.77;;;3.65;;
33672;SDS011;20011;51.510;9.942;2024-01-27T11:16:18;19.50;;;3.80;;
33672;SDS011;20011;51.510;9.942;2024-01-27T11:18:46;17.60;;;3.35;;
33672;SDS011;20011;51.510;9.942;2024-01-27T11:21:15;16.70;;;3.53;;
33672;SDS011;20011;51.510;9.942;2024-01-27T11:23:43;14.88;;;3.58;;
33672;SDS011;20011;51.510;9.942;2024-01-27T11:26:20;12.75;;;3.40;;
33672;SDS011;20011;51.510;9.942;2024-01-27T11:28:49;19.53;;;3.73;;
33672;SDS011;20011;51.510;9.942;2024-01-27T11:31:19;22.63;;;4.50;;
33672;SDS011;20011;51.510;9.942;2024-01-27T11:33:47;22.17;;;3.80;;
33672;SDS011;20011;51.510;9.942;2024-01-27T11:36:22;19.50;;;4.07;;
33672;SDS011;20011;51.510;9.942;2024-01-27T11:38:51;20.45;;;3.78;;
33672;SDS011;20011;51.510;9.942;2024-01-27T11:41:26;12.98;;;3.22;;
33672;SDS011;20011;51.510;9.942;2024-01-27T11:43:55;16.90;;;3.90;;
33672;SDS011;20011;51.510;9.942;2024-01-27T11:46:28;14.48;;;3.55;;
33672;SDS011;20011;51.510;9.942;2024-01-27T11:48:55;19.00;;;4.13;;
33672;SDS011;20011;51.510;9.942;2024-01-27T11:51:23;17.42;;;4.18;;
33672;SDS011;20011;51.510;9.942;2024-01-27T11:53:51;21.77;;;3.60;;
33672;SDS011;20011;51.510;9.942;2024-01-27T11:56:18;16.13;;;4.10;;
33672;SDS011;20011;51.510;9.942;2024-01-27T11:58:48;15.98;;;3.72;;
33672;SDS011;20011;51.510;9.942;2024-01-27T12:01:16;16.75;;;4.05;;
33672;SDS011;20011;51.510;9.942;2024-01-27T12:03:43;19.75;;;4.10;;
33672;SDS011;20011;51.510;9.942;2024-01-27T12:06:12;12.32;;;3.20;;
33672;SDS011;20011;51.510;9.942;2024-01-27T12:08:41;16.50;;;4.25;;
33672;SDS011;20011;51.510;9.942;2024-01-27T12:11:15;14.98;;;3.97;;
33672;SDS011;20011;51.510;9.942;2024-01-27T12:13:47;13.60;;;3.60;;
33672;SDS011;20011;51.510;9.942;2024-01-27T12:16:15;20.25;;;3.60;;
33672;SDS011;20011;51.510;9.942;2024-01-27T12:18:46;14.98;;;3.55;;
33672;SDS011;20011;51.510;9.942;2024-01-27T12:21:18;13.35;;;3.67;;
33672;SDS011;20011;51.510;9.942;2024-01-27T12:23:50;16.73;;;3.83;;
33672;SDS011;20011;51.510;9.942;2024-01-27T12:26:19;18.35;;;3.85;;
33672;SDS011;20011;51.510;9.942;2024-01-27T12:28:48;18.10;;;3.97;;
33672;SDS011;20011;51.510;9.942;2024-01-27T12:31:15;17.30;;;3.47;;
33672;SDS011;20011;51.510;9.942;2024-01-27T12:34:04;23.45;;;3.63;;
33672;SDS011;20011;51.510;9.942;2024-01-27T12:36:39;18.00;;;3.53;;
33672;SDS011;20011;51.510;9.942;2024-01-27T12:39:10;12.38;;;3.08;;
33672;SDS011;20011;51.510;9.942;2024-01-27T12:41:37;14.47;;;3.43;;
33672;SDS011;20011;51.510;9.942;2024-01-27T12:44:05;19.75;;;3.42;;
33672;SDS011;20011;51.510;9.942;2024-01-27T12:46:33;16.05;;;3.28;;
33672;SDS011;20011;51.510;9.942;2024-01-27T12:49:00;15.27;;;2.90;;
33672;SDS011;20011;51.510;9.942;2024-01-27T12:51:28;12.25;;;3.30;;
33672;SDS011;20011;51.510;9.942;2024-01-27T12:53:55;19.15;;;3.05;;
33672;SDS011;20011;51.510;9.942;2024-01-27T12:56:22;15.57;;;3.35;;
33672;SDS011;20011;51.510;9.942;2024-01-27T12:58:49;17.33;;;3.77;;
33672;SDS011;20011;51.510;9.942;2024-01-27T13:01:17;16.55;;;3.83;;
33672;SDS011;20011;51.510;9.942;2024-01-27T13:03:44;15.45;;;3.60;;
33672;SDS011;20011;51.510;9.942;2024-01-27T13:06:12;14.85;;;3.40;;
33672;SDS011;20011;51.510;9.942;2024-01-27T13:08:40;17.75;;;3.47;;
33672;SDS011;20011;51.510;9.942;2024-01-27T13:11:08;13.20;;;3.20;;
33672;SDS011;20011;51.510;9.942;2024-01-27T13:13:36;16.35;;;3.03;;
33672;SDS011;20011;51.510;9.942;2024-01-27T13:16:02;14.82;;;3.40;;
33672;SDS011;20011;51.510;9.942;2024-01-27T13:18:30;18.13;;;3.27;;
33672;SDS011;20011;51.510;9.942;2024-01-27T13:20:57;16.65;;;3.50;;
33672;SDS011;20011;51.510;9.942;2024-01-27T13:23:24;14.05;;;3.05;;
33672;SDS011;20011;51.510;9.942;2024-01-27T13:25:51;14.38;;;3.47;;
33672;SDS011;20011;51.510;9.942;2024-01-27T13:28:38;17.63;;;3.40;;
33672;SDS011;20011;51.510;9.942;2024-01-27T13:31:05;15.48;;;3.40;;
33672;SDS011;20011;51.510;9.942;2024-01-27T13:33:32;14.63;;;3.17;;
33672;SDS011;20011;51.510;9.942;2024-01-27T13:36:01;14.32;;;2.92;;
33672;SDS011;20011;51.510;9.942;2024-01-27T13:38:29;21.20;;;3.88;;
33672;SDS011;20011;51.510;9.942;2024-01-27T13:40:56;20.40;;;4.00;;
33672;SDS011;20011;51.510;9.942;2024-01-27T13:43:23;14.60;;;3.23;;
33672;SDS011;20011;51.510;9.942;2024-01-27T13:45:50;14.83;;;3.57;;
33672;SDS011;20011;51.510;9.942;2024-01-27T13:48:17;21.50;;;3.97;;
33672;SDS011;20011;51.510;9.942;2024-01-27T13:50:45;12.55;;;3.15;;
33672;SDS011;20011;51.510;9.942;2024-01-27T13:53:11;21.38;;;3.53;;
33672;SDS011;20011;51.510;9.942;2024-01-27T13:55:38;16.33;;;3.75;;
33672;SDS011;20011;51.510;9.942;2024-01-27T13:58:06;19.00;;;3.27;;
33672;SDS011;20011;51.510;9.942;2024-01-27T14:00:33;9.23;;;2.60;;
33672;SDS011;20011;51.510;9.942;2024-01-27T14:03:01;16.60;;;3.58;;
33672;SDS011;20011;51.510;9.942;2024-01-27T14:05:29;13.98;;;3.20;;
33672;SDS011;20011;51.510;9.942;2024-01-27T14:07:56;16.50;;;3.17;;
33672;SDS011;20011;51.510;9.942;2024-01-27T14:10:23;16.25;;;3.72;;
33672;SDS011;20011;51.510;9.942;2024-01-27T14:12:51;14.30;;;3.15;;
33672;SDS011;20011;51.510;9.942;2024-01-27T14:15:18;13.63;;;3.37;;
33672;SDS011;20011;51.510;9.942;2024-01-27T14:17:47;14.70;;;3.17;;
33672;SDS011;20011;51.510;9.942;2024-01-27T14:20:17;19.07;;;4.43;;
33672;SDS011;20011;51.510;9.942;2024-01-27T14:22:44;11.93;;;2.85;;
33672;SDS011;20011;51.510;9.942;2024-01-27T14:25:11;11.40;;;3.05;;
33672;SDS011;20011;51.510;9.942;2024-01-27T14:27:38;11.98;;;2.45;;
33672;SDS011;20011;51.510;9.942;2024-01-27T14:30:06;16.33;;;3.05;;
33672;SDS011;20011;51.510;9.942;2024-01-27T14:32:33;13.63;;;3.63;;
33672;SDS011;20011;51.510;9.942;2024-01-27T14:35:00;14.40;;;3.10;;
33672;SDS011;20011;51.510;9.942;2024-01-27T14:37:32;9.35;;;2.50;;
33672;SDS011;20011;51.510;9.942;2024-01-27T14:39:59;11.80;;;3.00;;
33672;SDS011;20011;51.510;9.942;2024-01-27T14:42:26;16.70;;;3.23;;
33672;SDS011;20011;51.510;9.942;2024-01-27T14:44:57;16.10;;;3.08;;
33672;SDS011;20011;51.510;9.942;2024-01-27T14:47:26;12.27;;;3.17;;
33672;SDS011;20011;51.510;9.942;2024-01-27T14:49:53;15.83;;;3.17;;
33672;SDS011;20011;51.510;9.942;2024-01-27T14:52:21;16.05;;;3.28;;
33672;SDS011;20011;51.510;9.942;2024-01-27T14:54:49;18.02;;;3.30;;
33672;SDS011;20011;51.510;9.942;2024-01-27T14:57:16;16.35;;;3.22;;
33672;SDS011;20011;51.510;9.942;2024-01-27T14:59:44;15.68;;;3.35;;
33672;SDS011;20011;51.510;9.942;2024-01-27T15:02:10;11.48;;;2.90;;
33672;SDS011;20011;51.510;9.942;2024-01-27T15:04:40;15.43;;;3.20;;
33672;SDS011;20011;51.510;9.942;2024-01-27T15:07:07;14.85;;;2.75;;
33672;SDS011;20011;51.510;9.942;2024-01-27T15:09:36;17.52;;;3.38;;
33672;SDS011;20011;51.510;9.942;2024-01-27T15:12:03;11.95;;;2.75;;
33672;SDS011;20011;51.510;9.942;2024-01-27T15:14:31;11.88;;;3.20;;
33672;SDS011;20011;51.510;9.942;2024-01-27T15:16:58;14.15;;;2.95;;
33672;SDS011;20011;51.510;9.942;2024-01-27T15:19:25;12.77;;;2.90;;
33672;SDS011;20011;51.510;9.942;2024-01-27T15:21:57;10.90;;;2.80;;
33672;SDS011;20011;51.510;9.942;2024-01-27T15:24:24;13.20;;;3.37;;
33672;SDS011;20011;51.510;9.942;2024-01-27T15:26:53;11.85;;;2.90;;
33672;SDS011;20011;51.510;9.942;2024-01-27T15:29:30;14.18;;;3.10;;